sensor_id;sensor_type;location;lat;lon;timestamp;P1;durP1;ratioP1;P2;durP2;ratioP2
23952;SDS011;12163;49.316;6.092;2023-02-01T00:00:29;29.42;;;8.20;;
23952;SDS011;12163;49.316;6.092;2023-02-01T00:02:56;31.88;;;8.63;;
23952;SDS011;12163;49.316;6.092;2023-02-01T00:05:22;31.40;;;8.07;;
23952;SDS011;12163;49.316;6.092;2023-02-01T00:07:49;32.40;;;7.72;;
23952;SDS011;12163;49.316;6.092;2023-02-01T00:10:16;24.45;;;7.85;;
23952;SDS011;12163;49.316;6.092;2023-02-01T00:12:43;26.45;;;8.15;;
23952;SDS011;12163;49.316;6.092;2023-02-01T00:15:10;29.90;;;9.63;;
23952;SDS011;12163;49.316;6.092;2023-02-01T00:17:37;31.92;;;9.25;;
23952;SDS011;12163;49.316;6.092;2023-02-01T00:20:04;26.48;;;8.63;;
23952;SDS011;12163;49.316;6.092;2023-02-01T00:22:31;21.60;;;7.57;;
23952;SDS011;12163;49.316;6.092;2023-02-01T00:24:58;32.17;;;8.32;;
23952;SDS011;12163;49.316;6.092;2023-02-01T00:27:24;34.05;;;9.27;;
23952;SDS011;12163;49.316;6.092;2023-02-01T00:29:51;33.75;;;8.45;;
23952;SDS011;12163;49.316;6.092;2023-02-01T00:32:17;26.95;;;8.13;;
23952;SDS011;12163;49.316;6.092;2023-02-01T00:34:44;23.00;;;8.55;;
23952;SDS011;12163;49.316;6.092;2023-02-01T00:37:11;32.60;;;9.05;;
23952;SDS011;12163;49.316;6.092;2023-02-01T00:39:37;30.08;;;8.50;;
23952;SDS011;12163;49.316;6.092;2023-02-01T00:42:04;24.45;;;7.60;;
23952;SDS011;12163;49.316;6.092;2023-02-01T00:44:31;33.35;;;8.68;;
23952;SDS011;12163;49.316;6.092;2023-02-01T00:47:00;27.30;;;8.68;;
23952;SDS011;12163;49.316;6.092;2023-02-01T00:49:27;27.58;;;8.30;;
23952;SDS011;12163;49.316;6.092;2023-02-01T00:51:55;28.20;;;9.13;;
23952;SDS011;12163;49.316;6.092;2023-02-01T00:54:22;41.28;;;9.02;;
23952;SDS011;12163;49.316;6.092;2023-02-01T00:56:48;30.17;;;8.13;;
23952;SDS011;12163;49.316;6.092;2023-02-01T00:59:15;29.95;;;8.88;;
23952;SDS011;12163;49.316;6.092;2023-02-01T01:01:42;31.48;;;8.23;;
23952;SDS011;12163;49.316;6.092;2023-02-01T01:04:09;28.10;;;8.60;;
23952;SDS011;12163;49.316;6.092;2023-02-01T01:06:35;31.38;;;9.02;;
23952;SDS011;12163;49.316;6.092;2023-02-01T01:09:03;32.22;;;9.07;;
23952;SDS011;12163;49.316;6.092;2023-02-01T01:11:33;27.90;;;8.50;;
23952;SDS011;12163;49.316;6.092;2023-02-01T01:14:02;30.38;;;8.60;;
23952;SDS011;12163;49.316;6.092;2023-02-01T01:16:31;30.27;;;8.65;;
23952;SDS011;12163;49.316;6.092;2023-02-01T01:18:58;34.60;;;8.85;;
23952;SDS011;12163;49.316;6.092;2023-02-01T01:21:26;30.13;;;8.00;;
23952;SDS011;12163;49.316;6.092;2023-02-01T01:23:53;23.85;;;7.88;;
23952;SDS011;12163;49.316;6.092;2023-02-01T01:26:22;23.80;;;8.85;;
23952;SDS011;12163;49.316;6.092;2023-02-01T01:28:57;34.13;;;8.13;;
23952;SDS011;12163;49.316;6.092;2023-02-01T01:31:25;26.83;;;8.88;;
23952;SDS011;12163;49.316;6.092;2023-02-01T01:33:53;31.42;;;7.60;;
23952;SDS011;12163;49.316;6.092;2023-02-01T01:36:22;29.27;;;7.82;;
23952;SDS011;12163;49.316;6.092;2023-02-01T01:38:49;25.50;;;7.85;;
23952;SDS011;12163;49.316;6.092;2023-02-01T01:41:19;25.27;;;7.43;;
23952;SDS011;12163;49.316;6.092;2023-02-01T01:46:16;29.10;;;8.18;;
23952;SDS011;12163;49.316;6.092;2023-02-01T01:49:10;27.42;;;8.35;;
23952;SDS011;12163;49.316;6.092;2023-02-01T01:51:42;31.45;;;8.70;;
23952;SDS011;12163;49.316;6.092;2023-02-01T01:54:23;29.20;;;8.60;;
23952;SDS011;12163;49.316;6.092;2023-02-01T01:56:57;32.72;;;8.13;;
23952;SDS011;12163;49.316;6.092;2023-02-01T01:59:31;27.10;;;8.32;;
23952;SDS011;12163;49.316;6.092;2023-02-01T02:02:02;27.67;;;8.50;;
23952;SDS011;12163;49.316;6.092;2023-02-01T02:04:30;32.03;;;9.55;;
23952;SDS011;12163;49.316;6.092;2023-02-01T02:07:04;25.08;;;9.23;;
23952;SDS011;12163;49.316;6.092;2023-02-01T02:09:35;28.33;;;9.63;;
23952;SDS011;12163;49.316;6.092;2023-02-01T02:12:03;29.63;;;9.77;;
23952;SDS011;12163;49.316;6.092;2023-02-01T02:14:30;25.27;;;8.80;;
23952;SDS011;12163;49.316;6.092;2023-02-01T02:28:11;27.63;;;9.23;;
23952;SDS011;12163;49.316;6.092;2023-02-01T02:39:37;28.77;;;9.50;;
23952;SDS011;12163;49.316;6.092;2023-02-01T02:43:04;29.38;;;10.10;;
23952;SDS011;12163;49.316;6.092;2023-02-01T02:46:03;28.60;;;9.73;;
23952;SDS011;12163;49.316;6.092;2023-02-01T02:48:55;29.88;;;10.23;;
23952;SDS011;12163;49.316;6.092;2023-02-01T02:51:35;34.63;;;11.00;;
23952;SDS011;12163;49.316;6.092;2023-02-01T02:54:23;32.03;;;10.25;;
23952;SDS011;12163;49.316;6.092;2023-02-01T02:57:13;31.75;;;10.65;;
23952;SDS011;12163;49.316;6.092;2023-02-01T03:00:00;39.35;;;11.15;;
23952;SDS011;12163;49.316;6.092;2023-02-01T03:02:49;35.83;;;11.27;;
23952;SDS011;12163;49.316;6.092;2023-02-01T03:05:35;31.77;;;10.20;;
23952;SDS011;12163;49.316;6.092;2023-02-01T03:08:10;32.88;;;10.30;;
23952;SDS011;12163;49.316;6.092;2023-02-01T03:10:44;28.63;;;9.65;;
23952;SDS011;12163;49.316;6.092;2023-02-01T03:13:20;35.67;;;9.88;;
23952;SDS011;12163;49.316;6.092;2023-02-01T03:24:44;31.67;;;9.75;;
23952;SDS011;12163;49.316;6.092;2023-02-01T03:32:25;27.38;;;9.60;;
23952;SDS011;12163;49.316;6.092;2023-02-01T03:34:52;24.85;;;9.20;;
23952;SDS011;12163;49.316;6.092;2023-02-01T03:37:24;29.45;;;9.07;;
23952;SDS011;12163;49.316;6.092;2023-02-01T03:40:05;22.60;;;9.30;;
23952;SDS011;12163;49.316;6.092;2023-02-01T03:42:38;31.45;;;9.43;;
23952;SDS011;12163;49.316;6.092;2023-02-01T03:47:39;27.02;;;7.50;;
23952;SDS011;12163;49.316;6.092;2023-02-01T03:50:10;23.77;;;8.70;;
23952;SDS011;12163;49.316;6.092;2023-02-01T03:52:44;20.55;;;8.32;;
23952;SDS011;12163;49.316;6.092;2023-02-01T03:55:15;29.05;;;8.00;;
23952;SDS011;12163;49.316;6.092;2023-02-01T03:57:50;29.17;;;8.02;;
23952;SDS011;12163;49.316;6.092;2023-02-01T04:00:23;16.85;;;7.25;;
23952;SDS011;12163;49.316;6.092;2023-02-01T04:02:52;29.75;;;8.23;;
23952;SDS011;12163;49.316;6.092;2023-02-01T04:05:19;30.80;;;7.57;;
23952;SDS011;12163;49.316;6.092;2023-02-01T04:07:46;24.23;;;7.82;;
23952;SDS011;12163;49.316;6.092;2023-02-01T04:10:13;23.98;;;7.07;;
23952;SDS011;12163;49.316;6.092;2023-02-01T04:12:39;26.52;;;7.25;;
23952;SDS011;12163;49.316;6.092;2023-02-01T04:15:07;21.10;;;6.72;;
23952;SDS011;12163;49.316;6.092;2023-02-01T04:17:34;27.65;;;7.65;;
23952;SDS011;12163;49.316;6.092;2023-02-01T04:20:01;23.65;;;6.20;;
23952;SDS011;12163;49.316;6.092;2023-02-01T04:22:27;33.53;;;6.97;;
23952;SDS011;12163;49.316;6.092;2023-02-01T04:24:55;22.90;;;6.53;;
23952;SDS011;12163;49.316;6.092;2023-02-01T04:27:21;25.63;;;6.82;;
23952;SDS011;12163;49.316;6.092;2023-02-01T04:29:48;27.75;;;6.85;;
23952;SDS011;12163;49.316;6.092;2023-02-01T04:32:16;22.88;;;6.10;;
23952;SDS011;12163;49.316;6.092;2023-02-01T04:34:43;24.85;;;6.18;;
23952;SDS011;12163;49.316;6.092;2023-02-01T04:37:09;29.83;;;6.30;;
23952;SDS011;12163;49.316;6.092;2023-02-01T04:39:36;22.05;;;6.55;;
23952;SDS011;12163;49.316;6.092;2023-02-01T04:42:03;27.52;;;6.57;;
23952;SDS011;12163;49.316;6.092;2023-02-01T04:44:29;22.70;;;6.53;;
23952;SDS011;12163;49.316;6.092;2023-02-01T04:46:56;24.90;;;6.25;;
23952;SDS011;12163;49.316;6.092;2023-02-01T04:49:23;25.65;;;5.88;;
23952;SDS011;12163;49.316;6.092;2023-02-01T04:51:51;27.00;;;7.32;;
23952;SDS011;12163;49.316;6.092;2023-02-01T04:54:18;27.35;;;6.05;;
23952;SDS011;12163;49.316;6.092;2023-02-01T04:56:45;18.45;;;5.53;;
23952;SDS011;12163;49.316;6.092;2023-02-01T04:59:11;28.33;;;6.20;;
23952;SDS011;12163;49.316;6.092;2023-02-01T05:01:38;26.33;;;6.18;;
23952;SDS011;12163;49.316;6.092;2023-02-01T05:04:05;25.05;;;6.18;;
23952;SDS011;12163;49.316;6.092;2023-02-01T05:06:32;18.98;;;5.57;;
23952;SDS011;12163;49.316;6.092;2023-02-01T05:08:58;32.83;;;6.53;;
23952;SDS011;12163;49.316;6.092;2023-02-01T05:11:25;29.33;;;6.30;;
23952;SDS011;12163;49.316;6.092;2023-02-01T05:14:10;27.52;;;5.38;;
23952;SDS011;12163;49.316;6.092;2023-02-01T05:16:37;26.92;;;6.10;;
23952;SDS011;12163;49.316;6.092;2023-02-01T05:19:03;26.92;;;7.00;;
23952;SDS011;12163;49.316;6.092;2023-02-01T05:21:30;27.08;;;6.20;;
23952;SDS011;12163;49.316;6.092;2023-02-01T05:23:57;27.55;;;5.88;;
23952;SDS011;12163;49.316;6.092;2023-02-01T05:26:36;38.47;;;6.63;;
23952;SDS011;12163;49.316;6.092;2023-02-01T05:29:04;27.23;;;5.55;;
23952;SDS011;12163;49.316;6.092;2023-02-01T05:31:31;22.45;;;5.55;;
23952;SDS011;12163;49.316;6.092;2023-02-01T05:33:58;24.48;;;4.97;;
23952;SDS011;12163;49.316;6.092;2023-02-01T05:36:25;32.47;;;6.07;;
23952;SDS011;12163;49.316;6.092;2023-02-01T05:38:51;23.77;;;5.97;;
23952;SDS011;12163;49.316;6.092;2023-02-01T05:41:18;30.00;;;5.78;;
23952;SDS011;12163;49.316;6.092;2023-02-01T05:43:45;34.00;;;5.97;;
23952;SDS011;12163;49.316;6.092;2023-02-01T05:46:11;33.30;;;5.45;;
23952;SDS011;12163;49.316;6.092;2023-02-01T05:48:39;26.35;;;6.25;;
23952;SDS011;12163;49.316;6.092;2023-02-01T05:51:06;23.42;;;4.78;;
23952;SDS011;12163;49.316;6.092;2023-02-01T05:53:33;29.08;;;5.97;;
23952;SDS011;12163;49.316;6.092;2023-02-01T05:56:00;28.17;;;5.30;;
23952;SDS011;12163;49.316;6.092;2023-02-01T05:58:27;30.33;;;5.00;;
23952;SDS011;12163;49.316;6.092;2023-02-01T06:00:53;23.52;;;4.60;;
23952;SDS011;12163;49.316;6.092;2023-02-01T06:03:19;22.80;;;4.72;;
23952;SDS011;12163;49.316;6.092;2023-02-01T06:05:46;31.10;;;5.20;;
23952;SDS011;12163;49.316;6.092;2023-02-01T06:08:14;42.42;;;5.63;;
23952;SDS011;12163;49.316;6.092;2023-02-01T06:10:41;27.38;;;5.63;;
23952;SDS011;12163;49.316;6.092;2023-02-01T06:13:07;27.77;;;5.22;;
23952;SDS011;12163;49.316;6.092;2023-02-01T06:15:34;35.63;;;5.60;;
23952;SDS011;12163;49.316;6.092;2023-02-01T06:18:03;24.48;;;4.57;;
23952;SDS011;12163;49.316;6.092;2023-02-01T06:20:30;23.33;;;4.40;;
23952;SDS011;12163;49.316;6.092;2023-02-01T06:22:57;28.55;;;5.40;;
23952;SDS011;12163;49.316;6.092;2023-02-01T06:25:24;28.90;;;4.88;;
23952;SDS011;12163;49.316;6.092;2023-02-01T06:27:50;32.22;;;5.35;;
23952;SDS011;12163;49.316;6.092;2023-02-01T06:30:17;28.88;;;5.35;;
23952;SDS011;12163;49.316;6.092;2023-02-01T06:32:44;36.15;;;5.68;;
23952;SDS011;12163;49.316;6.092;2023-02-01T06:35:10;23.88;;;4.75;;
23952;SDS011;12163;49.316;6.092;2023-02-01T06:37:42;18.90;;;3.67;;
23952;SDS011;12163;49.316;6.092;2023-02-01T06:40:09;22.83;;;4.28;;
23952;SDS011;12163;49.316;6.092;2023-02-01T06:42:36;28.45;;;4.70;;
23952;SDS011;12163;49.316;6.092;2023-02-01T06:45:03;33.35;;;5.00;;
23952;SDS011;12163;49.316;6.092;2023-02-01T06:47:30;37.08;;;5.40;;
23952;SDS011;12163;49.316;6.092;2023-02-01T06:49:57;28.67;;;4.60;;
23952;SDS011;12163;49.316;6.092;2023-02-01T06:52:23;36.67;;;5.22;;
23952;SDS011;12163;49.316;6.092;2023-02-01T06:54:50;34.35;;;4.88;;
23952;SDS011;12163;49.316;6.092;2023-02-01T06:57:16;40.97;;;6.30;;
23952;SDS011;12163;49.316;6.092;2023-02-01T06:59:43;32.17;;;4.88;;
23952;SDS011;12163;49.316;6.092;2023-02-01T07:02:10;39.85;;;5.50;;
23952;SDS011;12163;49.316;6.092;2023-02-01T07:04:37;38.50;;;5.07;;
23952;SDS011;12163;49.316;6.092;2023-02-01T07:07:04;44.40;;;4.95;;
23952;SDS011;12163;49.316;6.092;2023-02-01T07:09:31;39.58;;;5.50;;
23952;SDS011;12163;49.316;6.092;2023-02-01T07:11:58;36.08;;;5.60;;
23952;SDS011;12163;49.316;6.092;2023-02-01T07:14:24;27.00;;;4.63;;
23952;SDS011;12163;49.316;6.092;2023-02-01T07:16:51;39.45;;;5.18;;
23952;SDS011;12163;49.316;6.092;2023-02-01T07:19:17;36.20;;;5.40;;
23952;SDS011;12163;49.316;6.092;2023-02-01T07:21:44;31.05;;;6.07;;
23952;SDS011;12163;49.316;6.092;2023-02-01T07:24:10;35.42;;;5.95;;
23952;SDS011;12163;49.316;6.092;2023-02-01T07:26:37;36.40;;;5.55;;
23952;SDS011;12163;49.316;6.092;2023-02-01T07:29:04;39.05;;;5.43;;
23952;SDS011;12163;49.316;6.092;2023-02-01T07:31:30;34.72;;;4.95;;
23952;SDS011;12163;49.316;6.092;2023-02-01T07:33:57;42.85;;;5.85;;
23952;SDS011;12163;49.316;6.092;2023-02-01T07:36:24;32.22;;;5.32;;
23952;SDS011;12163;49.316;6.092;2023-02-01T07:38:51;33.55;;;5.20;;
23952;SDS011;12163;49.316;6.092;2023-02-01T07:41:21;43.00;;;5.90;;
23952;SDS011;12163;49.316;6.092;2023-02-01T07:43:48;47.90;;;5.72;;
23952;SDS011;12163;49.316;6.092;2023-02-01T07:46:16;30.15;;;4.65;;
23952;SDS011;12163;49.316;6.092;2023-02-01T08:07:55;33.47;;;5.50;;
23952;SDS011;12163;49.316;6.092;2023-02-01T08:10:23;33.25;;;4.60;;
23952;SDS011;12163;49.316;6.092;2023-02-01T08:12:50;34.15;;;5.50;;
23952;SDS011;12163;49.316;6.092;2023-02-01T08:15:18;37.40;;;6.15;;
23952;SDS011;12163;49.316;6.092;2023-02-01T08:17:48;30.40;;;4.75;;
23952;SDS011;12163;49.316;6.092;2023-02-01T08:20:16;31.00;;;5.65;;
23952;SDS011;12163;49.316;6.092;2023-02-01T08:22:43;43.67;;;5.45;;
23952;SDS011;12163;49.316;6.092;2023-02-01T08:25:11;39.70;;;6.35;;
23952;SDS011;12163;49.316;6.092;2023-02-01T08:27:38;36.60;;;5.18;;
23952;SDS011;12163;49.316;6.092;2023-02-01T08:30:04;35.28;;;5.45;;
23952;SDS011;12163;49.316;6.092;2023-02-01T08:32:33;38.25;;;5.70;;
23952;SDS011;12163;49.316;6.092;2023-02-01T08:35:00;35.75;;;5.55;;
23952;SDS011;12163;49.316;6.092;2023-02-01T08:37:28;33.20;;;5.47;;
23952;SDS011;12163;49.316;6.092;2023-02-01T08:39:55;30.80;;;5.47;;
23952;SDS011;12163;49.316;6.092;2023-02-01T08:42:21;37.10;;;5.88;;
23952;SDS011;12163;49.316;6.092;2023-02-01T08:45:07;29.55;;;5.18;;
23952;SDS011;12163;49.316;6.092;2023-02-01T08:47:35;33.28;;;5.32;;
23952;SDS011;12163;49.316;6.092;2023-02-01T08:50:01;29.70;;;5.30;;
23952;SDS011;12163;49.316;6.092;2023-02-01T08:52:29;36.17;;;5.70;;
23952;SDS011;12163;49.316;6.092;2023-02-01T08:54:55;32.22;;;5.82;;
23952;SDS011;12163;49.316;6.092;2023-02-01T08:57:22;30.98;;;4.85;;
23952;SDS011;12163;49.316;6.092;2023-02-01T08:59:49;23.05;;;4.50;;
23952;SDS011;12163;49.316;6.092;2023-02-01T09:02:16;32.78;;;5.78;;
23952;SDS011;12163;49.316;6.092;2023-02-01T09:04:43;38.83;;;5.85;;
23952;SDS011;12163;49.316;6.092;2023-02-01T09:07:10;34.35;;;5.43;;
23952;SDS011;12163;49.316;6.092;2023-02-01T09:09:37;34.30;;;6.13;;
23952;SDS011;12163;49.316;6.092;2023-02-01T09:12:04;42.50;;;5.35;;
23952;SDS011;12163;49.316;6.092;2023-02-01T09:14:31;28.08;;;5.25;;
23952;SDS011;12163;49.316;6.092;2023-02-01T09:16:58;28.58;;;4.93;;
23952;SDS011;12163;49.316;6.092;2023-02-01T09:19:25;34.88;;;5.53;;
23952;SDS011;12163;49.316;6.092;2023-02-01T09:21:52;43.08;;;5.85;;
23952;SDS011;12163;49.316;6.092;2023-02-01T09:24:19;32.97;;;5.30;;
23952;SDS011;12163;49.316;6.092;2023-02-01T09:26:46;32.60;;;5.47;;
23952;SDS011;12163;49.316;6.092;2023-02-01T09:29:12;44.10;;;5.70;;
23952;SDS011;12163;49.316;6.092;2023-02-01T09:31:39;30.92;;;4.93;;
23952;SDS011;12163;49.316;6.092;2023-02-01T09:34:14;33.10;;;5.22;;
23952;SDS011;12163;49.316;6.092;2023-02-01T09:36:41;31.13;;;4.72;;
23952;SDS011;12163;49.316;6.092;2023-02-01T09:39:08;30.02;;;5.63;;
23952;SDS011;12163;49.316;6.092;2023-02-01T09:47:04;28.88;;;4.63;;
23952;SDS011;12163;49.316;6.092;2023-02-01T09:49:39;34.35;;;5.03;;
23952;SDS011;12163;49.316;6.092;2023-02-01T09:52:15;27.40;;;4.30;;
23952;SDS011;12163;49.316;6.092;2023-02-01T09:54:44;34.88;;;5.65;;
23952;SDS011;12163;49.316;6.092;2023-02-01T09:57:19;24.40;;;4.43;;
23952;SDS011;12163;49.316;6.092;2023-02-01T09:59:54;25.85;;;4.55;;
23952;SDS011;12163;49.316;6.092;2023-02-01T10:02:27;30.25;;;4.82;;
23952;SDS011;12163;49.316;6.092;2023-02-01T10:04:57;28.88;;;4.43;;
23952;SDS011;12163;49.316;6.092;2023-02-01T10:12:52;33.63;;;4.85;;
23952;SDS011;12163;49.316;6.092;2023-02-01T10:27:07;35.15;;;5.93;;
23952;SDS011;12163;49.316;6.092;2023-02-01T10:29:41;33.33;;;5.53;;
23952;SDS011;12163;49.316;6.092;2023-02-01T10:32:21;24.60;;;4.55;;
23952;SDS011;12163;49.316;6.092;2023-02-01T10:34:57;29.90;;;4.47;;
23952;SDS011;12163;49.316;6.092;2023-02-01T10:40:02;33.08;;;4.93;;
23952;SDS011;12163;49.316;6.092;2023-02-01T10:42:42;23.98;;;4.78;;
23952;SDS011;12163;49.316;6.092;2023-02-01T10:45:12;32.35;;;4.70;;
23952;SDS011;12163;49.316;6.092;2023-02-01T10:47:42;27.45;;;5.05;;
23952;SDS011;12163;49.316;6.092;2023-02-01T10:53:24;33.83;;;5.13;;
23952;SDS011;12163;49.316;6.092;2023-02-01T12:41:56;26.60;;;4.60;;
23952;SDS011;12163;49.316;6.092;2023-02-01T12:50:32;33.05;;;4.75;;
23952;SDS011;12163;49.316;6.092;2023-02-01T12:53:36;29.63;;;4.90;;
23952;SDS011;12163;49.316;6.092;2023-02-01T12:56:18;29.83;;;4.50;;
23952;SDS011;12163;49.316;6.092;2023-02-01T12:58:55;29.30;;;4.60;;
23952;SDS011;12163;49.316;6.092;2023-02-01T13:01:40;30.33;;;4.53;;
23952;SDS011;12163;49.316;6.092;2023-02-01T13:04:17;33.47;;;5.40;;
23952;SDS011;12163;49.316;6.092;2023-02-01T13:06:50;28.13;;;4.95;;
23952;SDS011;12163;49.316;6.092;2023-02-01T13:12:11;21.05;;;4.38;;
23952;SDS011;12163;49.316;6.092;2023-02-01T13:14:46;21.15;;;4.13;;
23952;SDS011;12163;49.316;6.092;2023-02-01T13:17:22;19.80;;;4.10;;
23952;SDS011;12163;49.316;6.092;2023-02-01T13:19:59;26.77;;;4.35;;
23952;SDS011;12163;49.316;6.092;2023-02-01T13:25:05;19.45;;;3.80;;
23952;SDS011;12163;49.316;6.092;2023-02-01T13:27:43;19.52;;;3.20;;
23952;SDS011;12163;49.316;6.092;2023-02-01T13:30:16;22.10;;;3.65;;
23952;SDS011;12163;49.316;6.092;2023-02-01T13:36:08;19.48;;;3.17;;
23952;SDS011;12163;49.316;6.092;2023-02-01T13:44:31;21.10;;;3.53;;
23952;SDS011;12163;49.316;6.092;2023-02-01T13:47:10;19.17;;;3.67;;
23952;SDS011;12163;49.316;6.092;2023-02-01T13:49:46;27.25;;;4.05;;
23952;SDS011;12163;49.316;6.092;2023-02-01T13:57:49;27.73;;;4.78;;
23952;SDS011;12163;49.316;6.092;2023-02-01T14:00:28;24.33;;;4.03;;
23952;SDS011;12163;49.316;6.092;2023-02-01T14:24:02;19.77;;;3.80;;
23952;SDS011;12163;49.316;6.092;2023-02-01T14:29:02;15.32;;;3.03;;
23952;SDS011;12163;49.316;6.092;2023-02-01T14:31:35;17.13;;;3.35;;
23952;SDS011;12163;49.316;6.092;2023-02-01T14:34:16;23.05;;;4.22;;
23952;SDS011;12163;49.316;6.092;2023-02-01T14:36:44;25.10;;;4.03;;
23952;SDS011;12163;49.316;6.092;2023-02-01T15:00:56;30.48;;;3.97;;
23952;SDS011;12163;49.316;6.092;2023-02-01T15:06:28;19.90;;;3.55;;
23952;SDS011;12163;49.316;6.092;2023-02-01T15:14:30;20.83;;;3.78;;
23952;SDS011;12163;49.316;6.092;2023-02-01T15:16:59;20.77;;;3.88;;
23952;SDS011;12163;49.316;6.092;2023-02-01T15:19:27;20.52;;;3.38;;
23952;SDS011;12163;49.316;6.092;2023-02-01T15:21:56;21.33;;;3.78;;
23952;SDS011;12163;49.316;6.092;2023-02-01T15:24:24;21.65;;;4.18;;
23952;SDS011;12163;49.316;6.092;2023-02-01T15:26:54;29.10;;;4.38;;
23952;SDS011;12163;49.316;6.092;2023-02-01T15:29:22;19.73;;;3.50;;
23952;SDS011;12163;49.316;6.092;2023-02-01T15:31:55;28.50;;;4.07;;
23952;SDS011;12163;49.316;6.092;2023-02-01T15:34:22;21.33;;;4.03;;
23952;SDS011;12163;49.316;6.092;2023-02-01T15:36:49;26.00;;;4.10;;
23952;SDS011;12163;49.316;6.092;2023-02-01T15:39:28;21.20;;;3.58;;
23952;SDS011;12163;49.316;6.092;2023-02-01T15:41:59;21.55;;;3.67;;
23952;SDS011;12163;49.316;6.092;2023-02-01T15:44:44;20.27;;;3.60;;
23952;SDS011;12163;49.316;6.092;2023-02-01T15:47:19;26.02;;;4.15;;
23952;SDS011;12163;49.316;6.092;2023-02-01T15:49:55;18.60;;;3.88;;
23952;SDS011;12163;49.316;6.092;2023-02-01T15:52:31;16.30;;;3.65;;
23952;SDS011;12163;49.316;6.092;2023-02-01T15:55:02;28.60;;;4.45;;
23952;SDS011;12163;49.316;6.092;2023-02-01T15:57:34;25.33;;;4.45;;
23952;SDS011;12163;49.316;6.092;2023-02-01T16:00:22;23.70;;;3.50;;
23952;SDS011;12163;49.316;6.092;2023-02-01T16:02:58;29.08;;;4.90;;
23952;SDS011;12163;49.316;6.092;2023-02-01T16:05:32;24.55;;;3.65;;
23952;SDS011;12163;49.316;6.092;2023-02-01T16:08:06;25.63;;;3.70;;
23952;SDS011;12163;49.316;6.092;2023-02-01T16:10:42;26.38;;;4.18;;
23952;SDS011;12163;49.316;6.092;2023-02-01T16:13:11;23.80;;;4.13;;
23952;SDS011;12163;49.316;6.092;2023-02-01T16:15:39;26.30;;;4.00;;
23952;SDS011;12163;49.316;6.092;2023-02-01T16:18:07;30.45;;;3.92;;
23952;SDS011;12163;49.316;6.092;2023-02-01T16:20:36;18.35;;;3.95;;
23952;SDS011;12163;49.316;6.092;2023-02-01T16:23:05;22.42;;;3.45;;
23952;SDS011;12163;49.316;6.092;2023-02-01T16:25:33;26.10;;;4.00;;
23952;SDS011;12163;49.316;6.092;2023-02-01T16:28:00;29.48;;;4.22;;
23952;SDS011;12163;49.316;6.092;2023-02-01T16:30:27;25.13;;;4.03;;
23952;SDS011;12163;49.316;6.092;2023-02-01T16:32:54;24.63;;;3.67;;
23952;SDS011;12163;49.316;6.092;2023-02-01T16:35:31;22.30;;;4.55;;
23952;SDS011;12163;49.316;6.092;2023-02-01T16:38:05;27.88;;;4.47;;
23952;SDS011;12163;49.316;6.092;2023-02-01T16:40:41;28.70;;;4.88;;
23952;SDS011;12163;49.316;6.092;2023-02-01T16:43:13;30.08;;;4.18;;
23952;SDS011;12163;49.316;6.092;2023-02-01T16:45:40;26.90;;;3.72;;
23952;SDS011;12163;49.316;6.092;2023-02-01T16:48:11;23.77;;;3.92;;
23952;SDS011;12163;49.316;6.092;2023-02-01T16:50:51;29.52;;;4.25;;
23952;SDS011;12163;49.316;6.092;2023-02-01T16:53:21;20.80;;;4.30;;
23952;SDS011;12163;49.316;6.092;2023-02-01T16:55:49;25.67;;;4.28;;
23952;SDS011;12163;49.316;6.092;2023-02-01T16:58:16;22.42;;;4.55;;
23952;SDS011;12163;49.316;6.092;2023-02-01T17:00:43;22.17;;;4.53;;
23952;SDS011;12163;49.316;6.092;2023-02-01T17:03:11;26.10;;;4.43;;
23952;SDS011;12163;49.316;6.092;2023-02-01T17:05:43;25.02;;;4.10;;
23952;SDS011;12163;49.316;6.092;2023-02-01T17:08:13;25.08;;;3.88;;
23952;SDS011;12163;49.316;6.092;2023-02-01T17:10:45;21.40;;;3.97;;
23952;SDS011;12163;49.316;6.092;2023-02-01T17:13:12;17.60;;;3.60;;
23952;SDS011;12163;49.316;6.092;2023-02-01T17:15:43;23.20;;;3.85;;
23952;SDS011;12163;49.316;6.092;2023-02-01T17:18:22;24.95;;;4.85;;
23952;SDS011;12163;49.316;6.092;2023-02-01T17:20:51;21.98;;;3.38;;
23952;SDS011;12163;49.316;6.092;2023-02-01T17:23:18;25.42;;;4.50;;
23952;SDS011;12163;49.316;6.092;2023-02-01T17:25:45;31.55;;;3.92;;
23952;SDS011;12163;49.316;6.092;2023-02-01T17:28:13;19.35;;;3.38;;
23952;SDS011;12163;49.316;6.092;2023-02-01T17:30:40;25.65;;;4.05;;
23952;SDS011;12163;49.316;6.092;2023-02-01T17:33:18;25.65;;;4.55;;
23952;SDS011;12163;49.316;6.092;2023-02-01T17:35:52;29.27;;;4.53;;
23952;SDS011;12163;49.316;6.092;2023-02-01T17:38:20;21.25;;;3.60;;
23952;SDS011;12163;49.316;6.092;2023-02-01T17:40:47;20.02;;;3.65;;
23952;SDS011;12163;49.316;6.092;2023-02-01T17:43:15;20.95;;;3.75;;
23952;SDS011;12163;49.316;6.092;2023-02-01T17:45:45;21.95;;;3.90;;
23952;SDS011;12163;49.316;6.092;2023-02-01T17:48:18;23.85;;;3.90;;
23952;SDS011;12163;49.316;6.092;2023-02-01T17:50:47;24.23;;;4.10;;
23952;SDS011;12163;49.316;6.092;2023-02-01T17:53:24;26.42;;;4.18;;
23952;SDS011;12163;49.316;6.092;2023-02-01T17:55:52;26.95;;;4.15;;
23952;SDS011;12163;49.316;6.092;2023-02-01T17:58:19;27.27;;;4.07;;
23952;SDS011;12163;49.316;6.092;2023-02-01T18:00:47;24.63;;;4.07;;
23952;SDS011;12163;49.316;6.092;2023-02-01T18:05:44;25.80;;;4.13;;
23952;SDS011;12163;49.316;6.092;2023-02-01T18:10:43;23.50;;;3.97;;
23952;SDS011;12163;49.316;6.092;2023-02-01T18:13:10;25.40;;;3.85;;
23952;SDS011;12163;49.316;6.092;2023-02-01T18:15:37;23.38;;;3.58;;
23952;SDS011;12163;49.316;6.092;2023-02-01T18:18:05;23.80;;;4.13;;
23952;SDS011;12163;49.316;6.092;2023-02-01T18:20:32;20.33;;;3.92;;
23952;SDS011;12163;49.316;6.092;2023-02-01T18:23:00;21.30;;;4.43;;
23952;SDS011;12163;49.316;6.092;2023-02-01T18:25:29;25.33;;;4.57;;
23952;SDS011;12163;49.316;6.092;2023-02-01T18:28:02;26.58;;;5.22;;
23952;SDS011;12163;49.316;6.092;2023-02-01T18:30:29;22.25;;;4.13;;
23952;SDS011;12163;49.316;6.092;2023-02-01T18:32:58;23.80;;;3.70;;
23952;SDS011;12163;49.316;6.092;2023-02-01T18:35:26;28.77;;;4.38;;
23952;SDS011;12163;49.316;6.092;2023-02-01T18:37:54;23.10;;;4.00;;
23952;SDS011;12163;49.316;6.092;2023-02-01T18:40:29;26.65;;;4.25;;
23952;SDS011;12163;49.316;6.092;2023-02-01T18:42:58;30.90;;;5.43;;
23952;SDS011;12163;49.316;6.092;2023-02-01T18:45:27;22.80;;;4.30;;
23952;SDS011;12163;49.316;6.092;2023-02-01T18:47:57;29.92;;;4.25;;
23952;SDS011;12163;49.316;6.092;2023-02-01T18:50:25;28.23;;;3.67;;
23952;SDS011;12163;49.316;6.092;2023-02-01T18:52:54;23.38;;;4.63;;
23952;SDS011;12163;49.316;6.092;2023-02-01T18:55:22;29.88;;;4.32;;
23952;SDS011;12163;49.316;6.092;2023-02-01T18:57:50;26.95;;;4.13;;
23952;SDS011;12163;49.316;6.092;2023-02-01T19:00:18;27.08;;;4.45;;
23952;SDS011;12163;49.316;6.092;2023-02-01T19:02:46;29.90;;;4.90;;
23952;SDS011;12163;49.316;6.092;2023-02-01T19:05:14;22.10;;;4.32;;
23952;SDS011;12163;49.316;6.092;2023-02-01T19:07:42;27.27;;;3.75;;
23952;SDS011;12163;49.316;6.092;2023-02-01T19:10:10;25.48;;;4.35;;
23952;SDS011;12163;49.316;6.092;2023-02-01T19:12:39;26.42;;;4.47;;
23952;SDS011;12163;49.316;6.092;2023-02-01T19:15:08;31.48;;;4.13;;
23952;SDS011;12163;49.316;6.092;2023-02-01T19:17:45;22.67;;;4.70;;
23952;SDS011;12163;49.316;6.092;2023-02-01T19:20:14;25.40;;;4.00;;
23952;SDS011;12163;49.316;6.092;2023-02-01T19:22:42;20.63;;;3.97;;
23952;SDS011;12163;49.316;6.092;2023-02-01T19:25:12;22.17;;;3.85;;
23952;SDS011;12163;49.316;6.092;2023-02-01T19:27:43;23.00;;;4.75;;